Flight Track Log - Related Links

Times and Time Zones

All times are in EDT time to prevent confusion due to time zone crossing. See the N546QS flight status page for this flight to view local times or setup timezone preferences in your user account.


Time Position Orientation Groundspeed Altitude Reporting Facility
EDT Latitude Longitude Course Direction KTS MPH feet Rate Location/Type
Sun 08:10:46 PM 43.6711 -72.0986 55° Northeast 466 536 6,200  Level Boston Center
Sun 08:11:46 PM 43.6936 -71.9778 76° East 367 422 9,700 3,300 Climbing Boston Center
Sun 08:12:00 PM 43.8837 -71.2160 55° Northeast  Level FlightAware Approximate
Sun 08:12:46 PM 43.7181 -71.8569 74° East 338 389 12,800  Level Boston Center
Sun 08:13:46 PM 43.7611 -71.7358 64° Northeast 331 381 16,000 3,000 Climbing Boston Center
Sun 08:14:46 PM 43.8083 -71.6144 62° Northeast 338 389 18,800 2,600 Climbing Boston Center
Sun 08:15:46 PM 43.8594 -71.4928 60° Northeast 351 404 21,200 2,350 Climbing Boston Center
Sun 08:16:46 PM 43.9231 -71.3794 52° Northeast 363 418 23,500 1,950 Climbing Boston Center
Sun 08:17:46 PM 43.9906 -71.2542 53° Northeast 385 443 25,100 1,700 Climbing Boston Center
Sun 08:18:46 PM 44.0642 -71.1169 53° Northeast 418 481 26,900 1,900 Climbing Boston Center
Sun 08:19:46 PM 44.1142 -70.9594 66° East 432 497 28,900 2,000 Climbing Boston Center
Sun 08:20:46 PM 44.1600 -70.7992 68° East 437 503 30,900 2,000 Climbing Boston Center
Sun 08:21:46 PM 44.1886 -70.6247 77° East 449 517 32,900 2,000 Climbing Boston Center
Sun 08:22:46 PM 44.2172 -70.4589 76° East 449 517 34,900 2,000 Climbing Boston Center
Sun 08:23:46 PM 44.2433 -70.2928 78° East 444 511 36,900 1,750 Climbing Boston Center
Sun 08:24:46 PM 44.2694 -70.1294 77° East 439 505 38,400 1,300 Climbing Boston Center
Sun 08:25:46 PM 44.2950 -69.9631 78° East 434 499 39,500 1,050 Climbing Boston Center
Sun 08:26:46 PM 44.3206 -69.7964 78° East 434 499 40,500 750 Climbing Boston Center
Sun 08:27:46 PM 44.3478 -69.6239 77° East 434 499 41,000 250 Climbing Boston Center
Sun 08:28:46 PM 44.3711 -69.4806 77° East 440 506 41,000  Level Boston Center
Sun 08:29:46 PM 44.4050 -69.2608 78° East 461 531 41,000  Level Boston Center
Sun 08:30:46 PM 44.4311 -69.0792 79° East 474 545 41,000  Level Boston Center
Sun 08:31:46 PM 44.4589 -68.8972 78° East 474 545 41,000  Level Boston Center
Sun 08:32:46 PM 44.4867 -68.7150 78° East 474 545 41,000  Level Boston Center
Sun 08:33:46 PM 44.5117 -68.5300 79° East 474 545 41,000  Level Boston Center
Sun 08:34:46 PM 44.5386 -68.3475 78° East 474 545 41,000  Level Boston Center
Sun 08:35:58 PM 44.5633 -68.1622 79° East 474 545 41,000  Level Boston Center
Sun 08:36:58 PM 44.5944 -67.9383 79° East 474 545 41,000  Level Boston Center
Sun 08:37:58 PM 44.6203 -67.7553 79° East 474 545 41,000  Level Boston Center
Sun 08:38:58 PM 44.6458 -67.5664 79° East 474 545 41,000  Level Boston Center
Sun 08:39:58 PM 44.6733 -67.3831 78° East 474 545 41,000  Level Boston Center
Sun 08:40:44 PM 44.6667 -67.2167 93° East 480 552 41,000  Level Moncton Center
Sun 08:41:44 PM 44.7000 -67.0333 76° East 480 552 41,000  Level Moncton Center
Sun 08:42:44 PM 44.7333 -66.8500 76° East 480 552 41,000  Level Moncton Center
Sun 08:43:44 PM 44.7500 -66.6500 83° East 480 552 41,000  Level Moncton Center
Sun 08:44:44 PM 44.7667 -66.4667 83° East 480 552 41,000  Level Moncton Center
Sun 08:45:44 PM 44.7833 -66.2833 83° East 490 564 41,000  Level Moncton Center
Sun 08:46:44 PM 44.8333 -66.1000 69° East 490 564 41,000  Level Moncton Center
Sun 08:47:44 PM 44.8500 -65.9333 82° East 490 564 41,000  Level Moncton Center
Sun 08:48:44 PM 44.8667 -65.7167 84° East 490 564 41,000  Level Moncton Center
Sun 08:49:44 PM 44.8833 -65.5333 83° East 490 564 41,000  Level Moncton Center
Sun 08:50:44 PM 44.9000 -65.3333 83° East 500 575 41,000  Level Moncton Center
Sun 08:51:44 PM 44.9333 -65.1500 76° East 500 575 41,000  Level Moncton Center
Sun 08:52:44 PM 44.9500 -64.9333 84° East 490 564 41,000  Level Moncton Center
Sun 08:53:44 PM 44.9667 -64.7500 83° East 490 564 41,000  Level Moncton Center
Sun 08:54:44 PM 44.9833 -64.5667 83° East 490 564 41,000  Level Moncton Center
Sun 08:55:44 PM 45.0000 -64.3667 83° East 490 564 41,000  Level Moncton Center
Sun 08:56:44 PM 45.0333 -64.1833 76° East 490 564 41,000  Level Moncton Center
Sun 08:57:44 PM 45.0500 -64.0000 83° East 490 564 41,000  Level Moncton Center
Sun 08:58:44 PM 45.0667 -63.8000 83° East 490 564 41,000  Level Moncton Center
Sun 08:59:44 PM 45.0833 -63.6167 83° East 490 564 41,000  Level Moncton Center
Sun 09:00:44 PM 45.1167 -63.4333 75° East 490 564 41,000  Level Moncton Center
Sun 09:01:44 PM 45.1333 -63.2333 83° East 490 564 41,000  Level Moncton Center
Sun 09:02:44 PM 45.1500 -63.0167 84° East 490 564 41,000  Level Moncton Center
Sun 09:03:44 PM 45.1667 -62.8333 83° East 490 564 41,000  Level Moncton Center
Sun 09:04:44 PM 45.1833 -62.6667 82° East 490 564 41,000  Level Moncton Center
Sun 09:05:44 PM 45.1833 -62.4500 90° East 490 564 41,000  Level Moncton Center
Sun 09:06:44 PM 45.2167 -62.2667 75° East 490 564 41,000  Level Moncton Center
Sun 09:07:44 PM 45.2333 -62.0667 83° East 490 564 41,000  Level Moncton Center
Sun 09:08:44 PM 45.2500 -61.8833 83° East 490 564 41,000  Level Moncton Center
Sun 09:09:44 PM 45.2500 -61.6833 90° East 490 564 41,000  Level Moncton Center
Sun 09:10:44 PM 45.2833 -61.5000 75° East 490 564 41,000  Level Moncton Center
Sun 09:11:44 PM 45.3000 -61.3000 83° East 490 564 41,000  Level Moncton Center
Sun 09:12:44 PM 45.3167 -61.1167 83° East 490 564 41,000  Level Moncton Center
Sun 09:13:44 PM 45.3167 -60.9000 90° East 500 575 41,000  Level Moncton Center
Sun 09:14:29 PM 45.3333 -60.7667 80° East 500 575 41,000  Level Gander Center
Sun 09:14:44 PM 45.3333 -60.7000 90° East 500 575 41,000  Level Moncton Center
Sun 09:15:44 PM 45.3500 -60.5167 83° East 500 575 41,000  Level Moncton Center
Sun 09:16:44 PM 45.3667 -60.3167 83° East 500 575 41,000  Level Moncton Center
Sun 09:17:44 PM 45.3833 -60.1333 83° East 500 575 41,000  Level Moncton Center
Sun 09:18:44 PM 45.3833 -59.9500 90° East 500 575 41,000  Level Moncton Center
Sun 09:19:44 PM 45.4167 -59.7500 77° East 500 575 41,000  Level Moncton Center
Sun 09:20:29 PM 45.4167 -59.6000 90° East 500 575 41,000  Level Gander Center
Sun 09:21:29 PM 45.4333 -59.4000 83° East 500 575 41,000  Level Gander Center
Sun 09:21:44 PM 45.4333 -59.3500 90° East 500 575 41,000  Level Moncton Center
Sun 09:22:44 PM 45.4333 -59.1500 90° East 500 575 41,000  Level Moncton Center
Sun 09:23:29 PM 45.4500 -59.0000 81° East 500 575 41,000  Level Gander Center
Sun 09:24:29 PM 45.4667 -58.7833 84° East 500 575 41,000  Level Gander Center
Sun 09:24:44 PM 45.4667 -58.7333 90° East 500 575 41,000  Level Moncton Center
Sun 09:25:44 PM 45.4667 -58.5500 90° East 500 575 41,000  Level Moncton Center
Sun 09:26:44 PM 45.4833 -58.3500 83° East 500 575 41,000  Level Moncton Center
Sun 09:27:44 PM 45.5000 -58.1667 83° East 490 564 41,000  Level Moncton Center
Sun 09:28:29 PM 45.5000 -58.0167 90° East 490 564 41,000  Level Gander Center
Sun 09:29:29 PM 45.5000 -57.8333 90° East 490 564 41,000  Level Gander Center
Sun 09:29:44 PM 45.5167 -57.7833 65° Northeast 490 564 41,000  Level Moncton Center
Sun 09:30:44 PM 45.5167 -57.5833 90° East 490 564 41,000  Level Moncton Center
Sun 09:31:44 PM 45.5333 -57.3667 84° East 490 564 41,000  Level Moncton Center
Sun 09:32:29 PM 45.5333 -57.2333 90° East 500 575 41,000  Level Gander Center
Sun 09:33:29 PM 45.5500 -57.0500 83° East 490 564 41,000  Level Gander Center
Sun 09:33:44 PM 45.5500 -56.9833 90° East 490 564 41,000  Level Moncton Center
Sun 09:34:44 PM 45.5500 -56.8000 90° East 490 564 41,000  Level Moncton Center
Sun 09:35:44 PM 45.5667 -56.6000 83° East 490 564 41,000  Level Moncton Center
Sun 09:36:44 PM 45.5833 -56.4000 83° East 490 564 41,000  Level Moncton Center
Sun 09:37:29 PM 45.6167 -56.2500 72° East 500 575 41,000  Level Gander Center
Sun 09:38:29 PM 45.6167 -56.0500 90° East 500 575 41,000  Level Gander Center
Sun 09:39:29 PM 45.6500 -55.8667 75° East 500 575 41,000  Level Gander Center
Sun 09:40:29 PM 45.6500 -55.6667 90° East 500 575 41,000  Level Gander Center
Sun 09:40:44 PM 45.6667 -55.6000 70° East 500 575 41,000  Level Moncton Center
Sun 09:41:44 PM 45.6667 -55.4333 90° East 500 575 41,000  Level Moncton Center
Sun 09:42:44 PM 45.6833 -55.2333 83° East 500 575 41,000  Level Moncton Center
Sun 09:43:29 PM 45.7000 -55.0667 82° East 500 575 41,000  Level Gander Center
Sun 09:44:29 PM 45.7167 -54.8667 83° East 500 575 41,000  Level Gander Center
Sun 09:44:44 PM 45.7167 -54.8167 90° East 510 587 41,000  Level Moncton Center
Sun 09:45:44 PM 45.7333 -54.6333 83° East 500 575 41,000  Level Moncton Center
Sun 09:46:44 PM 45.7500 -54.4333 83° East 510 587 41,000  Level Moncton Center
Sun 09:47:29 PM 45.7667 -54.2667 82° East 510 587 41,000  Level Gander Center
Sun 09:48:29 PM 45.7667 -54.0833 90° East 510 587 41,000  Level Gander Center
Sun 09:49:29 PM 45.8000 -53.8833 76° East 510 587 41,000  Level Gander Center
Sun 09:50:29 PM 45.8000 -53.6667 90° East 510 587 41,000  Level Gander Center
Sun 09:51:29 PM 45.8167 -53.4667 83° East 510 587 41,000  Level Gander Center
Sun 09:52:29 PM 45.8333 -53.2500 84° East 510 587 41,000  Level Gander Center
Sun 09:53:29 PM 45.8333 -53.0667 90° East 510 587 41,000  Level Gander Center
Sun 09:54:29 PM 45.8500 -52.8333 84° East 510 587 41,000  Level Gander Center
Sun 09:54:44 PM 45.8667 -52.8000 54° Northeast 510 587 41,000  Level Moncton Center
Sun 09:55:40 PM 45.8667 -52.6167 90° East 520 598 41,000  Level Gander Center
Sun 09:56:40 PM 45.8833 -52.4000 84° East 510 587 41,000  Level Gander Center
Sun 09:57:40 PM 45.8833 -52.2167 90° East 520 598 41,000  Level Gander Center
Sun 09:58:40 PM 45.9000 -52.0167 83° East 520 598 41,000  Level Gander Center
Sun 09:59:40 PM 45.9000 -51.8000 90° East 520 598 41,000  Level Gander Center
Sun 10:00:40 PM 45.9167 -51.6000 83° East 520 598 41,000  Level Gander Center
Sun 10:01:40 PM 45.9333 -51.3833 84° East 520 598 41,000  Level Gander Center
Sun 10:02:40 PM 45.9333 -51.1833 90° East 510 587 41,000  Level Gander Center
Sun 10:03:29 PM 45.9500 -51.0167 82° East 520 598 41,000  Level Gander Center
Sun 10:04:29 PM 45.9667 -50.8000 84° East 520 598 41,000  Level Gander Center
Sun 10:05:29 PM 45.9500 -50.6000 97° East 520 598 41,000  Level Gander Center
Sun 10:06:29 PM 45.9667 -50.3833 84° East 520 598 41,000  Level Gander Center
Sun 10:07:29 PM 45.9667 -50.1667 90° East 530 610 41,000  Level Gander Center
Sun 10:08:29 PM 45.9667 -49.9500 90° East 530 610 41,000  Level Gander Center
Sun 10:09:29 PM 45.9667 -49.7500 90° East 530 610 41,000  Level Gander Center
Sun 10:10:29 PM 45.9667 -49.5333 90° East 530 610 41,000  Level Gander Center
Sun 10:11:29 PM 45.9333 -49.3333 103° East 530 610 41,000  Level Gander Center
Sun 10:13:00 PM 45.9178 -49.0712 95° East  Level FlightAware Approximate
Sun 10:20:00 PM 45.8266 -47.6977 95° East  Level FlightAware Approximate
Sun 10:21:00 PM 45.8122 -47.5018 96° East  Level FlightAware Approximate
Sun 10:22:00 PM 45.7975 -47.3061 96° East  Level FlightAware Approximate
Sun 10:23:00 PM 45.7825 -47.1105 96° East  Level FlightAware Approximate
Sun 10:24:00 PM 45.7671 -46.9150 96° East  Level FlightAware Approximate
Sun 10:25:00 PM 45.7514 -46.7195 97° East  Level FlightAware Approximate
Sun 10:26:00 PM 45.7354 -46.5242 97° East  Level FlightAware Approximate
Sun 10:27:00 PM 45.7190 -46.3290 97° East  Level FlightAware Approximate
Sun 10:28:00 PM 45.7023 -46.1340 97° East  Level FlightAware Approximate
Sun 10:29:00 PM 45.6852 -45.9390 97° East  Level FlightAware Approximate
Sun 10:30:00 PM 45.6679 -45.7442 97° East  Level FlightAware Approximate
Sun 10:31:00 PM 45.6502 -45.5494 97° East  Level FlightAware Approximate
Sun 10:32:00 PM 45.6321 -45.3549 97° East  Level FlightAware Approximate
Sun 10:33:00 PM 45.6138 -45.1604 98° East  Level FlightAware Approximate
Sun 10:34:00 PM 45.5951 -44.9660 98° East  Level FlightAware Approximate
Sun 10:35:00 PM 45.5761 -44.7718 98° East  Level FlightAware Approximate
Sun 10:36:00 PM 45.5567 -44.5778 98° East  Level FlightAware Approximate
Sun 10:37:00 PM 45.5370 -44.3838 98° East  Level FlightAware Approximate
Sun 10:38:00 PM 45.5171 -44.1900 98° East  Level FlightAware Approximate
Sun 10:39:00 PM 45.4967 -43.9964 98° East  Level FlightAware Approximate
Sun 10:40:00 PM 45.4761 -43.8028 99° East  Level FlightAware Approximate
Sun 10:41:00 PM 45.4551 -43.6095 99° East  Level FlightAware Approximate
Sun 10:42:00 PM 45.4338 -43.4162 99° East  Level FlightAware Approximate
Sun 10:43:00 PM 45.4121 -43.2231 99° East  Level FlightAware Approximate
Sun 10:44:00 PM 45.3902 -43.0302 99° East  Level FlightAware Approximate
Sun 10:45:00 PM 45.3679 -42.8374 99° East  Level FlightAware Approximate
Sun 10:46:00 PM 45.3453 -42.6448 99° East  Level FlightAware Approximate
Sun 10:47:00 PM 45.3223 -42.4523 100° East  Level FlightAware Approximate
Sun 10:48:00 PM 45.2991 -42.2600 100° East  Level FlightAware Approximate
Sun 10:49:00 PM 45.2755 -42.0678 100° East  Level FlightAware Approximate
Sun 10:50:00 PM 45.2516 -41.8758 100° East  Level FlightAware Approximate
Sun 10:51:00 PM 45.2274 -41.6840 100° East  Level FlightAware Approximate
Sun 10:52:00 PM 45.2028 -41.4923 100° East  Level FlightAware Approximate
Sun 10:53:00 PM 45.1780 -41.3008 100° East  Level FlightAware Approximate
Sun 10:54:00 PM 45.1528 -41.1095 101° East  Level FlightAware Approximate
Sun 10:55:00 PM 45.1273 -40.9183 101° East  Level FlightAware Approximate
Sun 10:56:00 PM 45.1015 -40.7273 101° East  Level FlightAware Approximate
Sun 10:56:00 PM 45.0000 -40.0000 102° East 548 631 41,000  Level ETMS Enhanced Traffic Management System
Sun 10:57:00 PM 45.0753 -40.5365 101° East  Level FlightAware Approximate
Sun 10:58:00 PM 45.0489 -40.3458 101° East  Level FlightAware Approximate
Sun 10:59:00 PM 45.0221 -40.1553 101° East  Level FlightAware Approximate
Sun 11:00:00 PM 44.9943 -39.9649 103° East  Level FlightAware Approximate
Sun 11:01:00 PM 44.9635 -39.7758 103° East  Level FlightAware Approximate
Sun 11:02:00 PM 44.7686 -38.5316 103° East 548 631 41,000  Level FlightAware Transoceanic
Sun 11:03:00 PM 44.7340 -38.3228 103° East 548 631 41,000  Level FlightAware Transoceanic
Sun 11:04:00 PM 44.6990 -38.1143 103° East 548 631 41,000  Level FlightAware Transoceanic
Sun 11:05:00 PM 44.6637 -37.9060 103° East 548 631 41,000  Level FlightAware Transoceanic
Sun 11:06:00 PM 44.6280 -37.6980 104° East 548 631 41,000  Level FlightAware Transoceanic
Sun 11:07:00 PM 44.5919 -37.4902 104° East 548 631 41,000  Level FlightAware Transoceanic
Sun 11:08:00 PM 44.5554 -37.2827 104° East 548 631 41,000  Level FlightAware Transoceanic
Sun 11:09:00 PM 44.5185 -37.0754 104° East 548 631 41,000  Level FlightAware Transoceanic
Sun 11:10:00 PM 44.4813 -36.8684 104° East 548 631 41,000  Level FlightAware Transoceanic
Sun 11:11:00 PM 44.4437 -36.6617 104° East 548 631 41,000  Level FlightAware Transoceanic
Sun 11:12:00 PM 44.4057 -36.4552 105° East 548 631 41,000  Level FlightAware Transoceanic
Sun 11:13:00 PM 44.3674 -36.2491 105° East 548 631 41,000  Level FlightAware Transoceanic
Sun 11:14:00 PM 44.3287 -36.0431 105° East 548 631 41,000  Level FlightAware Transoceanic
Sun 11:15:00 PM 44.2896 -35.8375 105° East 548 631 41,000  Level FlightAware Transoceanic
Sun 11:16:00 PM 44.2501 -35.6321 105° East 548 631 41,000  Level FlightAware Transoceanic
Sun 11:17:00 PM 44.2103 -35.4270 105° East 548 631 41,000  Level FlightAware Transoceanic
Sun 11:18:00 PM 44.1701 -35.2222 105° East 548 631 41,000  Level FlightAware Transoceanic
Sun 11:19:00 PM 44.1295 -35.0177 106° East 548 631 41,000  Level FlightAware Transoceanic
Sun 11:20:00 PM 44.0886 -34.8134 106° East 548 631 41,000  Level FlightAware Transoceanic
Sun 11:21:00 PM 44.0473 -34.6094 106° East 548 631 41,000  Level FlightAware Transoceanic
Sun 11:22:00 PM 44.0057 -34.4058 106° East 548 631 41,000  Level FlightAware Transoceanic
Sun 11:23:00 PM 43.9637 -34.2024 106° East 548 631 41,000  Level FlightAware Transoceanic
Sun 11:24:00 PM 43.9213 -33.9992 106° East 548 631 41,000  Level FlightAware Transoceanic
Sun 11:25:00 PM 43.8786 -33.7964 106° East 548 631 41,000  Level FlightAware Transoceanic
Sun 11:26:00 PM 43.8355 -33.5939 107° East 548 631 41,000  Level FlightAware Transoceanic
Sun 11:27:00 PM 43.7921 -33.3917 107° East 548 631 41,000  Level FlightAware Transoceanic
Sun 11:28:00 PM 43.7483 -33.1897 107° East 548 631 41,000  Level FlightAware Transoceanic
Sun 11:29:00 PM 43.7041 -32.9881 107° East 548 631 41,000  Level FlightAware Transoceanic
Sun 11:30:00 PM 43.6596 -32.7868 107° East 548 631 41,000  Level FlightAware Transoceanic
Sun 11:31:00 PM 43.6148 -32.5857 107° East 548 631 41,000  Level FlightAware Transoceanic
Sun 11:32:00 PM 43.5696 -32.3850 107° East 548 631 41,000  Level FlightAware Transoceanic
Sun 11:33:00 PM 43.5240 -32.1845 107° East 548 631 41,000  Level FlightAware Transoceanic
Sun 11:34:00 PM 43.4781 -31.9844 108° East 548 631 41,000  Level FlightAware Transoceanic
Sun 11:35:00 PM 43.4318 -31.7845 108° East 548 631 41,000  Level FlightAware Transoceanic
Sun 11:36:00 PM 43.3852 -31.5850 108° East 548 631 41,000  Level FlightAware Transoceanic
Sun 11:37:00 PM 43.3383 -31.3858 108° East 548 631 41,000  Level FlightAware Transoceanic
Sun 11:38:00 PM 43.2910 -31.1869 108° East 548 631 41,000  Level FlightAware Transoceanic
Sun 11:39:00 PM 43.2433 -30.9883 108° East 548 631 41,000  Level FlightAware Transoceanic
Sun 11:40:00 PM 43.1954 -30.7900 108° East 548 631 41,000  Level FlightAware Transoceanic
Sun 11:41:00 PM 43.1470 -30.5920 109° East 548 631 41,000  Level FlightAware Transoceanic
Sun 11:42:00 PM 43.0984 -30.3944 109° East 548 631 41,000  Level FlightAware Transoceanic
Sun 11:43:00 PM 43.0494 -30.1970 109° East 548 631 41,000  Level FlightAware Transoceanic
Sun 11:44:00 PM 43.0049 -30.0194 109° East  Level FlightAware Approximate
Sun 11:45:00 PM 42.9602 -29.8421 109° East  Level FlightAware Approximate
Sun 11:46:00 PM 42.9782 -29.8565 102° East  Level FlightAware Approximate
Sun 11:47:00 PM 42.9501 -29.6730 102° East  Level FlightAware Approximate
Sun 11:48:00 PM 42.9216 -29.4896 102° East  Level FlightAware Approximate
Sun 11:49:00 PM 42.8929 -29.3064 102° East  Level FlightAware Approximate
Sun 11:50:00 PM 42.8639 -29.1233 102° East  Level FlightAware Approximate
Sun 11:51:00 PM 42.8346 -28.9405 102° East  Level FlightAware Approximate
Sun 11:52:00 PM 42.8050 -28.7578 102° East  Level FlightAware Approximate
Sun 11:53:00 PM 42.7751 -28.5752 103° East  Level FlightAware Approximate
Sun 11:54:00 PM 42.7449 -28.3929 103° East  Level FlightAware Approximate
Sun 11:55:00 PM 42.7144 -28.2107 103° East  Level FlightAware Approximate
Sun 11:56:00 PM 42.6836 -28.0287 103° East  Level FlightAware Approximate
Sun 11:57:00 PM 42.6526 -27.8469 103° East  Level FlightAware Approximate
Sun 11:58:00 PM 42.6212 -27.6653 103° East  Level FlightAware Approximate
Sun 11:59:00 PM 42.5896 -27.4839 103° East  Level FlightAware Approximate
Mon 12:00:00 AM 42.5577 -27.3026 103° East  Level FlightAware Approximate
Mon 12:01:00 AM 42.5255 -27.1216 104° East  Level FlightAware Approximate
Mon 12:02:00 AM 42.4930 -26.9407 104° East  Level FlightAware Approximate
Mon 12:03:00 AM 42.4603 -26.7600 104° East  Level FlightAware Approximate
Mon 12:04:00 AM 42.4272 -26.5795 104° East  Level FlightAware Approximate
Mon 12:05:00 AM 42.3939 -26.3992 104° East  Level FlightAware Approximate
Mon 12:06:00 AM 42.3603 -26.2191 104° East  Level FlightAware Approximate
Mon 12:07:00 AM 42.3264 -26.0391 104° East  Level FlightAware Approximate
Mon 12:08:00 AM 42.2922 -25.8594 104° East  Level FlightAware Approximate
Mon 12:09:00 AM 42.2577 -25.6799 104° East  Level FlightAware Approximate
Mon 12:10:00 AM 42.2230 -25.5005 105° East  Level FlightAware Approximate
Mon 12:11:00 AM 42.1880 -25.3214 105° East  Level FlightAware Approximate
Mon 12:12:00 AM 42.1527 -25.1425 105° East  Level FlightAware Approximate
Mon 12:13:00 AM 42.1171 -24.9637 105° East  Level FlightAware Approximate
Mon 12:14:00 AM 42.0813 -24.7852 105° East  Level FlightAware Approximate
Mon 12:15:00 AM 42.0451 -24.6068 105° East  Level FlightAware Approximate
Mon 12:16:00 AM 42.0087 -24.4287 105° East  Level FlightAware Approximate
Mon 12:17:00 AM 41.9721 -24.2508 105° East  Level FlightAware Approximate
Mon 12:18:00 AM 41.9351 -24.0730 106° East  Level FlightAware Approximate
Mon 12:19:00 AM 41.8979 -23.8955 106° East  Level FlightAware Approximate
Mon 12:20:00 AM 41.8604 -23.7182 106° East  Level FlightAware Approximate
Mon 12:21:00 AM 41.8226 -23.5411 106° East  Level FlightAware Approximate
Mon 12:22:00 AM 41.7846 -23.3642 106° East  Level FlightAware Approximate
Mon 12:23:00 AM 41.7463 -23.1875 106° East  Level FlightAware Approximate
Mon 12:24:00 AM 41.7077 -23.0111 106° East  Level FlightAware Approximate
Mon 12:25:00 AM 41.6688 -22.8348 106° East  Level FlightAware Approximate
Mon 12:26:00 AM 41.6297 -22.6588 107° East  Level FlightAware Approximate
Mon 12:27:00 AM 41.5903 -22.4830 107° East  Level FlightAware Approximate
Mon 12:28:00 AM 41.5507 -22.3073 107° East  Level FlightAware Approximate
Mon 12:29:00 AM 41.5107 -22.1319 107° East  Level FlightAware Approximate
Mon 12:30:00 AM 41.4706 -21.9568 107° East  Level FlightAware Approximate
Mon 12:31:00 AM 41.4301 -21.7818 107° East  Level FlightAware Approximate
Mon 12:32:00 AM 41.3894 -21.6071 107° East  Level FlightAware Approximate
Mon 12:33:00 AM 41.3484 -21.4325 107° East  Level FlightAware Approximate
Mon 12:34:00 AM 41.3072 -21.2582 107° East  Level FlightAware Approximate
Mon 12:35:00 AM 41.2656 -21.0842 108° East  Level FlightAware Approximate
Mon 12:36:00 AM 41.2239 -20.9103 108° East  Level FlightAware Approximate
Mon 12:37:00 AM 41.1818 -20.7367 108° East  Level FlightAware Approximate
Mon 12:38:00 AM 41.1395 -20.5632 108° East  Level FlightAware Approximate
Mon 12:39:00 AM 41.0970 -20.3901 108° East  Level FlightAware Approximate
Mon 12:40:00 AM 41.0542 -20.2171 108° East  Level FlightAware Approximate
Mon 12:41:00 AM 41.0111 -20.0443 108° East  Level FlightAware Approximate
Mon 12:42:00 AM 40.9768 -19.8684 103° East  Level FlightAware Approximate
Mon 12:43:00 AM 40.9454 -19.6915 103° East  Level FlightAware Approximate
Mon 12:44:00 AM 40.9136 -19.5148 103° East  Level FlightAware Approximate
Mon 12:45:00 AM 40.8816 -19.3382 103° East  Level FlightAware Approximate
Mon 12:46:00 AM 40.8494 -19.1618 104° East  Level FlightAware Approximate
Mon 12:47:00 AM 40.8169 -18.9856 104° East  Level FlightAware Approximate
Mon 12:48:00 AM 40.7841 -18.8096 104° East  Level FlightAware Approximate
Mon 12:49:00 AM 40.7510 -18.6337 104° East  Level FlightAware Approximate
Mon 12:50:00 AM 40.7177 -18.4580 104° East  Level FlightAware Approximate
Mon 12:51:00 AM 40.6841 -18.2825 104° East  Level FlightAware Approximate
Mon 12:52:00 AM 40.6502 -18.1071 104° East  Level FlightAware Approximate
Mon 12:53:00 AM 40.6161 -17.9320 104° East  Level FlightAware Approximate
Mon 12:54:00 AM 40.5817 -17.7570 104° East  Level FlightAware Approximate
Mon 12:55:00 AM 40.5471 -17.5822 105° East  Level FlightAware Approximate
Mon 12:56:00 AM 40.5122 -17.4076 105° East  Level FlightAware Approximate
Mon 12:57:00 AM 40.4770 -17.2332 105° East  Level FlightAware Approximate
Mon 12:58:00 AM 40.4415 -17.0589 105° East  Level FlightAware Approximate
Mon 12:59:00 AM 40.4058 -16.8848 105° East  Level FlightAware Approximate
Mon 01:00:00 AM 40.3699 -16.7110 105° East  Level FlightAware Approximate
Mon 01:01:00 AM 40.3337 -16.5373 105° East  Level FlightAware Approximate
Mon 01:02:00 AM 40.2972 -16.3637 105° East  Level FlightAware Approximate
Mon 01:03:00 AM 40.2604 -16.1904 105° East  Level FlightAware Approximate
Mon 01:04:00 AM 40.2234 -16.0173 106° East  Level FlightAware Approximate
Mon 01:05:00 AM 40.1862 -15.8443 106° East  Level FlightAware Approximate
Mon 01:06:00 AM 40.1487 -15.6716 106° East  Level FlightAware Approximate
Mon 01:07:00 AM 40.1109 -15.4990 106° East  Level FlightAware Approximate
Mon 01:08:00 AM 40.0729 -15.3267 106° East  Level FlightAware Approximate
Mon 01:09:00 AM 40.0346 -15.1545 106° East  Level FlightAware Approximate
Mon 01:10:00 AM 39.9938 -14.9837 116° Southeast  Level FlightAware Approximate
Mon 01:11:00 AM 39.9327 -14.8233 116° Southeast  Level FlightAware Approximate
Mon 01:12:00 AM 39.8714 -14.6633 116° Southeast  Level FlightAware Approximate
Mon 01:13:00 AM 39.8099 -14.5035 117° Southeast  Level FlightAware Approximate
Mon 01:14:00 AM 39.7481 -14.3440 117° Southeast  Level FlightAware Approximate
Mon 01:15:00 AM 39.6862 -14.1848 117° Southeast  Level FlightAware Approximate
Mon 01:16:00 AM 39.6240 -14.0259 117° Southeast  Level FlightAware Approximate
Mon 01:17:00 AM 39.5616 -13.8673 117° Southeast  Level FlightAware Approximate
Mon 01:18:00 AM 39.4990 -13.7089 117° Southeast  Level FlightAware Approximate
Mon 01:19:00 AM 39.4362 -13.5509 117° Southeast  Level FlightAware Approximate
Mon 01:20:00 AM 39.3731 -13.3931 117° Southeast  Level FlightAware Approximate
Mon 01:21:00 AM 39.3099 -13.2356 117° Southeast  Level FlightAware Approximate
Mon 01:22:00 AM 39.2464 -13.0784 117° Southeast  Level FlightAware Approximate
Mon 01:23:00 AM 39.1828 -12.9215 118° Southeast  Level FlightAware Approximate
Mon 01:24:00 AM 39.1189 -12.7649 118° Southeast  Level FlightAware Approximate
Mon 01:25:00 AM 39.0548 -12.6085 118° Southeast  Level FlightAware Approximate
Mon 01:26:00 AM 38.9905 -12.4525 118° Southeast  Level FlightAware Approximate
Mon 01:27:00 AM 38.9260 -12.2967 118° Southeast  Level FlightAware Approximate
Mon 01:28:00 AM 38.8613 -12.1412 118° Southeast  Level FlightAware Approximate
Mon 01:29:00 AM 38.7964 -11.9860 118° Southeast  Level FlightAware Approximate
Mon 01:30:00 AM 38.7312 -11.8311 118° Southeast  Level FlightAware Approximate
Mon 01:31:00 AM 38.6659 -11.6764 118° Southeast  Level FlightAware Approximate
Mon 01:32:00 AM 38.6004 -11.5221 118° Southeast  Level FlightAware Approximate
Mon 01:33:00 AM 38.5346 -11.3680 119° Southeast  Level FlightAware Approximate
Mon 01:34:00 AM 38.4687 -11.2142 119° Southeast  Level FlightAware Approximate
Mon 01:35:00 AM 38.4026 -11.0607 119° Southeast  Level FlightAware Approximate
Mon 01:36:00 AM 38.3362 -10.9074 119° Southeast  Level FlightAware Approximate
Mon 01:37:00 AM 38.2697 -10.7545 119° Southeast  Level FlightAware Approximate
Mon 01:38:00 AM 38.2030 -10.6018 119° Southeast  Level FlightAware Approximate
Mon 01:39:00 AM 38.1360 -10.4494 119° Southeast  Level FlightAware Approximate
Mon 01:40:00 AM 38.0689 -10.2973 119° Southeast  Level FlightAware Approximate
Mon 01:41:00 AM 38.0016 -10.1454 119° Southeast  Level FlightAware Approximate
Mon 01:42:00 AM 37.9341 -9.9939 119° Southeast  Level FlightAware Approximate
Mon 01:43:00 AM 37.8664 -9.8426 120° Southeast  Level FlightAware Approximate
Mon 01:44:00 AM 37.7985 -9.6916 120° Southeast  Level FlightAware Approximate
Mon 01:45:00 AM 37.7304 -9.5409 120° Southeast  Level FlightAware Approximate
Mon 01:46:00 AM 37.6621 -9.3904 120° Southeast  Level FlightAware Approximate
Mon 01:47:00 AM 37.5936 -9.2402 120° Southeast  Level FlightAware Approximate
Mon 01:48:00 AM 37.5249 -9.0904 120° Southeast  Level FlightAware Approximate
Mon 01:49:00 AM 37.4561 -8.9407 120° Southeast  Level FlightAware Approximate
Mon 01:50:00 AM 37.3870 -8.7914 120° Southeast  Level FlightAware Approximate
Mon 01:51:00 AM 37.3178 -8.6423 120° Southeast  Level FlightAware Approximate
Mon 01:52:00 AM 37.2483 -8.4935 120° Southeast  Level FlightAware Approximate
Mon 01:53:00 AM 37.1787 -8.3450 120° Southeast  Level FlightAware Approximate
Mon 01:54:00 AM 37.1090 -8.1968 121° Southeast  Level FlightAware Approximate
Mon 01:55:00 AM 37.0390 -8.0488 121° Southeast  Level FlightAware Approximate
Mon 01:56:00 AM 37.0148 -7.8927 76° East  Level FlightAware Approximate
Mon 01:57:00 AM 37.0478 -7.7258 76° East  Level FlightAware Approximate
Mon 01:58:00 AM 37.0807 -7.5588 76° East  Level FlightAware Approximate
Mon 01:59:00 AM 37.1133 -7.3917 76° East  Level FlightAware Approximate
Mon 02:00:00 AM 37.1456 -7.2244 76° East  Level FlightAware Approximate
Mon 02:01:00 AM 37.1778 -7.0570 76° East  Level FlightAware Approximate
Mon 02:02:00 AM 37.2097 -6.8894 77° East  Level FlightAware Approximate
Mon 02:03:00 AM 37.2413 -6.7217 77° East  Level FlightAware Approximate
Mon 02:04:00 AM 37.2728 -6.5539 77° East  Level FlightAware Approximate
Mon 02:05:00 AM 37.3040 -6.3859 77° East  Level FlightAware Approximate
Mon 02:06:00 AM 37.3349 -6.2178 77° East  Level FlightAware Approximate
Mon 02:07:00 AM 37.3656 -6.0495 77° East  Level FlightAware Approximate
Mon 02:08:00 AM 37.3961 -5.8811 77° East  Level FlightAware Approximate
Mon 02:09:00 AM 37.3957 -5.7180 118° Southeast  Level FlightAware Approximate
Mon 02:10:00 AM 37.3300 -5.5663 119° Southeast  Level FlightAware Approximate
Mon 02:11:00 AM 37.2642 -5.4149 119° Southeast  Level FlightAware Approximate
Mon 02:12:00 AM 37.1982 -5.2638 119° Southeast  Level FlightAware Approximate
Mon 02:13:00 AM 37.1320 -5.1129 119° Southeast  Level FlightAware Approximate
Mon 02:14:00 AM 37.0656 -4.9623 119° Southeast  Level FlightAware Approximate
Mon 02:15:00 AM 36.9991 -4.8120 119° Southeast  Level FlightAware Approximate
Mon 02:16:00 AM 36.9323 -4.6620 119° Southeast  Level FlightAware Approximate
Mon 02:17:00 AM 36.8653 -4.5122 119° Southeast  Level FlightAware Approximate
Mon 02:18:00 AM 36.8018 -4.3626 62° Northeast  Level FlightAware Approximate
Mon 02:19:00 AM 36.8665 -4.2114 62° Northeast  Level FlightAware Approximate
Mon 02:20:00 AM 36.9311 -4.0600 62° Northeast  Level FlightAware Approximate
Mon 02:21:00 AM 36.9955 -3.9083 62° Northeast  Level FlightAware Approximate
Mon 02:22:00 AM 37.0597 -3.7564 62° Northeast  Level FlightAware Approximate
Mon 02:23:00 AM 37.1237 -3.6042 62° Northeast  Level FlightAware Approximate
Mon 02:24:00 AM 37.1875 -3.4517 62° Northeast  Level FlightAware Approximate
Mon 02:25:00 AM 37.2511 -3.2990 62° Northeast  Level FlightAware Approximate
Mon 02:26:00 AM 37.3145 -3.1460 62° Northeast  Level FlightAware Approximate
Mon 02:27:00 AM 37.3777 -2.9928 63° Northeast  Level FlightAware Approximate
Mon 02:28:00 AM 37.4408 -2.8393 63° Northeast  Level FlightAware Approximate
Mon 02:29:00 AM 37.5036 -2.6856 63° Northeast  Level FlightAware Approximate
Mon 02:30:00 AM 37.5662 -2.5316 63° Northeast  Level FlightAware Approximate
Mon 02:31:00 AM 37.6286 -2.3774 63° Northeast  Level FlightAware Approximate
Mon 02:32:00 AM 37.6908 -2.2228 63° Northeast  Level FlightAware Approximate
Mon 02:33:00 AM 37.7528 -2.0680 63° Northeast  Level FlightAware Approximate
Mon 02:34:00 AM 37.8146 -1.9130 63° Northeast  Level FlightAware Approximate
Mon 02:35:00 AM 37.8761 -1.7576 63° Northeast  Level FlightAware Approximate
Mon 02:36:00 AM 37.9375 -1.6020 63° Northeast  Level FlightAware Approximate
Mon 02:37:00 AM 37.9986 -1.4462 63° Northeast  Level FlightAware Approximate
Mon 02:38:00 AM 38.0596 -1.2901 64° Northeast  Level FlightAware Approximate
Mon 02:39:00 AM 38.1203 -1.1337 64° Northeast  Level FlightAware Approximate
Mon 02:40:00 AM 38.1822 -0.9779 63° Northeast  Level FlightAware Approximate
Mon 02:41:00 AM 38.2443 -0.8222 63° Northeast  Level FlightAware Approximate
Mon 02:42:00 AM 38.3061 -0.6661 63° Northeast  Level FlightAware Approximate
Mon 02:43:00 AM 38.3678 -0.5098 63° Northeast  Level FlightAware Approximate
Mon 02:44:00 AM 38.4292 -0.3532 63° Northeast  Level FlightAware Approximate
Mon 02:45:00 AM 38.4905 -0.1964 63° Northeast  Level FlightAware Approximate
Mon 02:46:00 AM 38.5515 -0.0392 64° Northeast  Level FlightAware Approximate
Mon 02:47:00 AM 38.6071 0.1212 67° East  Level FlightAware Approximate
Mon 02:48:00 AM 38.6665 0.2794 62° Northeast  Level FlightAware Approximate
Mon 02:49:00 AM 38.7299 0.4353 64° Northeast  Level FlightAware Approximate
Mon 02:50:00 AM 38.7873 0.5951 67° East  Level FlightAware Approximate
Mon 02:51:00 AM 38.8442 0.7551 57° Northeast  Level FlightAware Approximate
Mon 02:52:00 AM 38.9024 0.9140 68° East  Level FlightAware Approximate
Mon 02:53:00 AM 38.9540 1.0774 64° Northeast  Level FlightAware Approximate
Mon 02:54:00 AM 39.0137 1.2364 64° Northeast  Level FlightAware Approximate
Mon 02:55:00 AM 39.0732 1.3956 64° Northeast  Level FlightAware Approximate
Mon 02:56:00 AM 39.1325 1.5552 64° Northeast  Level FlightAware Approximate
Mon 02:57:00 AM 39.1915 1.7149 64° Northeast  Level FlightAware Approximate
Mon 02:58:00 AM 39.2478 1.8765 67° East  Level FlightAware Approximate
Mon 02:59:00 AM 39.3021 2.0393 67° East  Level FlightAware Approximate
Mon 03:00:00 AM 39.3563 2.2022 67° East  Level FlightAware Approximate
Mon 03:01:00 AM 39.4194 2.3598 62° Northeast  Level FlightAware Approximate
Mon 03:02:00 AM 39.4654 2.5254 78° East  Level FlightAware Approximate
Mon 03:03:00 AM 39.5287 2.6693 67° East  Level FlightAware Approximate
Mon 03:04:00 AM 39.5500 2.7333 67° East  Level FlightAware Approximate
Mon 03:05:00 AM 39.5517 2.7388 67° East  Level Estimated
Mon 03:06:00 AM 39.5500 2.7333 67° East  Level FlightAware Approximate
Mon 03:07:00 AM 39.5517 2.7388 67° East  Level Estimated
Mon 03:08:00 AM 39.5500 2.7333 67° East  Level FlightAware Approximate
Mon 03:09:00 AM 39.5517 2.7388 67° East  Level Estimated
Mon 03:10:00 AM 39.5500 2.7333 67° East  Level FlightAware Approximate
Mon 03:11:00 AM 39.5517 2.7388 67° East  Level Estimated
Mon 03:12:00 AM 39.5500 2.7333 67° East  Level FlightAware Approximate
Mon 03:13:00 AM 39.5517 2.7388 67° East  Level Estimated
Mon 03:14:00 AM 39.5500 2.7333 67° East  Level FlightAware Approximate
Mon 03:15:00 AM 39.5517 2.7388 67° East  Level Estimated
Mon 03:16:00 AM 39.5500 2.7333 67° East  Level FlightAware Approximate
Mon 03:17:00 AM 39.5517 2.7388 67° East  Level Estimated
Mon 03:18:00 AM 39.5500 2.7333 67° East  Level FlightAware Approximate
Mon 03:19:00 AM 39.5517 2.7388 67° East  Level Estimated
Mon 03:20:00 AM 39.5500 2.7333 67° East  Level FlightAware Approximate
Mon 03:21:00 AM 39.5517 2.7388 67° East  Level Estimated
Mon 03:22:00 AM 39.5500 2.7333 67° East  Level FlightAware Approximate
Mon 03:23:00 AM 39.5517 2.7388 67° East  Level Estimated

Login

Don't have an account? Register now (free) for customized features, flight alerts, and more!